In Rescue
 
Open Full Screen Window  High Contrast Mode
January 22, 2020 6:47 PM EST
Weather Information
Wind Direction
  ---
Wind Speed
  00 kt (0 mph)
Wind Gust
  00 kt (0 mph)
Altimeter
30.30 in
Visibility
10 SM
Temperature
-01° C
30° F
Dewpoint
-06° C
21° F
Humidity
69%
1hr Rain Fall
00.00 in.
24hr Rain Fall
00.00 in.
Sky Condition
Clear
VFR

METAR KMRT 222347Z AUTO 00000KT 10SM CLR M01/M06 A3030 RMK AO2 T10101060 10015 21010

FAA Disclaimer: The data displayed is for advisory purposes only and is not to be used for flight planning or operations.